sensor_id;sensor_type;location;lat;lon;timestamp;temperature;humidity
11597;DHT22;5854;48.072;16.286;2022-07-22T00:01:19;28.50;40.50
11597;DHT22;5854;48.072;16.286;2022-07-22T00:03:46;28.50;40.60
11597;DHT22;5854;48.072;16.286;2022-07-22T00:06:14;28.50;40.50
11597;DHT22;5854;48.072;16.286;2022-07-22T00:08:41;28.60;40.30
11597;DHT22;5854;48.072;16.286;2022-07-22T00:11:09;28.40;40.60
11597;DHT22;5854;48.072;16.286;2022-07-22T00:13:36;28.50;40.80
11597;DHT22;5854;48.072;16.286;2022-07-22T00:16:07;28.40;40.70
11597;DHT22;5854;48.072;16.286;2022-07-22T00:18:34;28.20;41.20
11597;DHT22;5854;48.072;16.286;2022-07-22T00:21:02;28.10;42.20
11597;DHT22;5854;48.072;16.286;2022-07-22T00:23:30;28.00;41.70
11597;DHT22;5854;48.072;16.286;2022-07-22T00:25:57;27.90;41.60
11597;DHT22;5854;48.072;16.286;2022-07-22T00:28:25;28.10;41.20
11597;DHT22;5854;48.072;16.286;2022-07-22T00:30:52;28.20;41.00
11597;DHT22;5854;48.072;16.286;2022-07-22T00:33:21;28.20;41.00
11597;DHT22;5854;48.072;16.286;2022-07-22T00:35:48;28.00;41.20
11597;DHT22;5854;48.072;16.286;2022-07-22T00:38:15;28.20;41.00
11597;DHT22;5854;48.072;16.286;2022-07-22T00:40:42;28.20;40.50
11597;DHT22;5854;48.072;16.286;2022-07-22T00:43:10;28.10;41.00
11597;DHT22;5854;48.072;16.286;2022-07-22T00:45:37;27.80;40.90
11597;DHT22;5854;48.072;16.286;2022-07-22T00:48:05;27.60;41.90
11597;DHT22;5854;48.072;16.286;2022-07-22T00:50:34;27.80;41.40
11597;DHT22;5854;48.072;16.286;2022-07-22T00:53:04;27.70;41.20
11597;DHT22;5854;48.072;16.286;2022-07-22T00:55:33;27.70;41.30
11597;DHT22;5854;48.072;16.286;2022-07-22T00:58:01;27.90;40.60
11597;DHT22;5854;48.072;16.286;2022-07-22T01:00:29;27.70;41.10
11597;DHT22;5854;48.072;16.286;2022-07-22T01:02:56;27.80;41.00
11597;DHT22;5854;48.072;16.286;2022-07-22T01:05:25;27.90;40.60
11597;DHT22;5854;48.072;16.286;2022-07-22T01:07:53;27.80;40.80
11597;DHT22;5854;48.072;16.286;2022-07-22T01:10:21;28.00;40.90
11597;DHT22;5854;48.072;16.286;2022-07-22T01:12:48;28.20;40.50
11597;DHT22;5854;48.072;16.286;2022-07-22T01:15:15;28.00;40.80
11597;DHT22;5854;48.072;16.286;2022-07-22T01:17:43;27.80;40.80
11597;DHT22;5854;48.072;16.286;2022-07-22T01:20:12;27.70;41.10
11597;DHT22;5854;48.072;16.286;2022-07-22T01:22:39;27.90;40.60
11597;DHT22;5854;48.072;16.286;2022-07-22T01:25:07;27.70;40.80
11597;DHT22;5854;48.072;16.286;2022-07-22T01:27:34;27.80;40.90
11597;DHT22;5854;48.072;16.286;2022-07-22T01:30:02;27.70;40.80
11597;DHT22;5854;48.072;16.286;2022-07-22T01:32:29;27.60;41.10
11597;DHT22;5854;48.072;16.286;2022-07-22T01:34:57;27.50;41.30
11597;DHT22;5854;48.072;16.286;2022-07-22T01:37:25;27.60;41.00
11597;DHT22;5854;48.072;16.286;2022-07-22T01:39:52;27.40;41.60
11597;DHT22;5854;48.072;16.286;2022-07-22T01:42:19;27.10;42.40
11597;DHT22;5854;48.072;16.286;2022-07-22T01:44:47;27.20;42.20
11597;DHT22;5854;48.072;16.286;2022-07-22T01:47:14;27.20;42.10
11597;DHT22;5854;48.072;16.286;2022-07-22T01:49:41;27.10;42.30
11597;DHT22;5854;48.072;16.286;2022-07-22T01:52:08;26.90;42.20
11597;DHT22;5854;48.072;16.286;2022-07-22T01:54:37;27.10;42.20
11597;DHT22;5854;48.072;16.286;2022-07-22T01:57:04;27.10;41.90
11597;DHT22;5854;48.072;16.286;2022-07-22T01:59:31;27.10;42.30
11597;DHT22;5854;48.072;16.286;2022-07-22T02:01:58;27.00;42.70
11597;DHT22;5854;48.072;16.286;2022-07-22T02:04:25;26.90;42.10
11597;DHT22;5854;48.072;16.286;2022-07-22T02:06:52;26.90;42.20
11597;DHT22;5854;48.072;16.286;2022-07-22T02:09:19;26.90;42.10
11597;DHT22;5854;48.072;16.286;2022-07-22T02:11:47;27.10;42.20
11597;DHT22;5854;48.072;16.286;2022-07-22T02:14:14;27.10;42.10
11597;DHT22;5854;48.072;16.286;2022-07-22T02:16:42;27.10;41.80
11597;DHT22;5854;48.072;16.286;2022-07-22T02:19:09;27.10;41.70
11597;DHT22;5854;48.072;16.286;2022-07-22T02:21:36;27.10;42.80
11597;DHT22;5854;48.072;16.286;2022-07-22T02:24:04;27.00;42.20
11597;DHT22;5854;48.072;16.286;2022-07-22T02:26:32;27.20;41.60
11597;DHT22;5854;48.072;16.286;2022-07-22T02:29:01;27.20;41.40
11597;DHT22;5854;48.072;16.286;2022-07-22T02:31:29;27.00;42.20
11597;DHT22;5854;48.072;16.286;2022-07-22T02:33:56;26.90;42.20
11597;DHT22;5854;48.072;16.286;2022-07-22T02:36:23;26.90;42.00
11597;DHT22;5854;48.072;16.286;2022-07-22T02:38:50;27.00;42.20
11597;DHT22;5854;48.072;16.286;2022-07-22T02:41:17;27.10;41.80
11597;DHT22;5854;48.072;16.286;2022-07-22T02:43:44;27.10;41.80
11597;DHT22;5854;48.072;16.286;2022-07-22T02:46:13;27.00;41.60
11597;DHT22;5854;48.072;16.286;2022-07-22T02:48:40;26.70;42.00
11597;DHT22;5854;48.072;16.286;2022-07-22T02:51:07;26.70;42.30
11597;DHT22;5854;48.072;16.286;2022-07-22T02:53:34;26.60;42.60
11597;DHT22;5854;48.072;16.286;2022-07-22T02:56:01;26.80;42.20
11597;DHT22;5854;48.072;16.286;2022-07-22T02:58:28;26.60;42.20
11597;DHT22;5854;48.072;16.286;2022-07-22T03:00:55;26.70;42.20
11597;DHT22;5854;48.072;16.286;2022-07-22T03:03:24;26.70;42.70
11597;DHT22;5854;48.072;16.286;2022-07-22T03:05:51;26.50;42.70
11597;DHT22;5854;48.072;16.286;2022-07-22T03:08:18;26.40;43.40
11597;DHT22;5854;48.072;16.286;2022-07-22T03:10:45;26.70;42.60
11597;DHT22;5854;48.072;16.286;2022-07-22T03:13:12;26.70;42.10
11597;DHT22;5854;48.072;16.286;2022-07-22T03:15:40;26.80;42.10
11597;DHT22;5854;48.072;16.286;2022-07-22T03:18:07;26.60;42.20
11597;DHT22;5854;48.072;16.286;2022-07-22T03:20:37;26.70;42.20
11597;DHT22;5854;48.072;16.286;2022-07-22T03:23:04;26.70;42.30
11597;DHT22;5854;48.072;16.286;2022-07-22T03:25:31;26.40;42.50
11597;DHT22;5854;48.072;16.286;2022-07-22T03:27:59;26.50;42.40
11597;DHT22;5854;48.072;16.286;2022-07-22T03:30:27;26.60;42.20
11597;DHT22;5854;48.072;16.286;2022-07-22T03:32:54;26.60;42.20
11597;DHT22;5854;48.072;16.286;2022-07-22T03:35:21;26.70;42.00
11597;DHT22;5854;48.072;16.286;2022-07-22T03:37:49;26.60;41.90
11597;DHT22;5854;48.072;16.286;2022-07-22T03:40:17;26.50;42.80
11597;DHT22;5854;48.072;16.286;2022-07-22T03:42:44;26.40;42.80
11597;DHT22;5854;48.072;16.286;2022-07-22T03:45:11;26.60;42.30
11597;DHT22;5854;48.072;16.286;2022-07-22T03:47:38;26.50;42.50
11597;DHT22;5854;48.072;16.286;2022-07-22T03:50:06;26.40;43.40
11597;DHT22;5854;48.072;16.286;2022-07-22T03:52:33;26.20;42.90
11597;DHT22;5854;48.072;16.286;2022-07-22T03:55:02;26.20;42.90
11597;DHT22;5854;48.072;16.286;2022-07-22T03:57:31;26.40;42.60
11597;DHT22;5854;48.072;16.286;2022-07-22T03:59:58;26.40;42.70
11597;DHT22;5854;48.072;16.286;2022-07-22T04:02:25;26.50;42.00
11597;DHT22;5854;48.072;16.286;2022-07-22T04:04:52;26.60;42.80
11597;DHT22;5854;48.072;16.286;2022-07-22T04:07:19;26.60;42.30
11597;DHT22;5854;48.072;16.286;2022-07-22T04:09:46;26.40;42.20
11597;DHT22;5854;48.072;16.286;2022-07-22T04:12:15;26.50;42.10
11597;DHT22;5854;48.072;16.286;2022-07-22T04:14:42;26.50;41.90
11597;DHT22;5854;48.072;16.286;2022-07-22T04:17:10;26.60;42.30
11597;DHT22;5854;48.072;16.286;2022-07-22T04:19:37;26.50;42.20
11597;DHT22;5854;48.072;16.286;2022-07-22T04:22:04;26.50;41.90
11597;DHT22;5854;48.072;16.286;2022-07-22T04:24:32;26.40;42.50
11597;DHT22;5854;48.072;16.286;2022-07-22T04:26:59;26.30;42.60
11597;DHT22;5854;48.072;16.286;2022-07-22T04:29:27;26.50;42.00
11597;DHT22;5854;48.072;16.286;2022-07-22T04:31:54;26.40;42.40
11597;DHT22;5854;48.072;16.286;2022-07-22T04:34:21;26.50;42.30
11597;DHT22;5854;48.072;16.286;2022-07-22T04:36:48;26.40;42.10
11597;DHT22;5854;48.072;16.286;2022-07-22T04:39:16;26.50;42.00
11597;DHT22;5854;48.072;16.286;2022-07-22T04:41:43;26.60;41.40
11597;DHT22;5854;48.072;16.286;2022-07-22T04:44:10;26.50;42.40
11597;DHT22;5854;48.072;16.286;2022-07-22T04:46:39;26.60;41.60
11597;DHT22;5854;48.072;16.286;2022-07-22T04:49:06;26.50;42.10
11597;DHT22;5854;48.072;16.286;2022-07-22T04:51:33;26.50;42.00
11597;DHT22;5854;48.072;16.286;2022-07-22T04:54:00;26.50;41.90
11597;DHT22;5854;48.072;16.286;2022-07-22T04:56:28;26.70;41.80
11597;DHT22;5854;48.072;16.286;2022-07-22T04:58:55;26.80;41.50
11597;DHT22;5854;48.072;16.286;2022-07-22T05:01:22;26.80;40.90
11597;DHT22;5854;48.072;16.286;2022-07-22T05:03:51;26.80;40.90
11597;DHT22;5854;48.072;16.286;2022-07-22T05:06:19;26.70;41.10
11597;DHT22;5854;48.072;16.286;2022-07-22T05:08:46;26.70;41.20
11597;DHT22;5854;48.072;16.286;2022-07-22T05:11:13;26.80;41.10
11597;DHT22;5854;48.072;16.286;2022-07-22T05:13:40;26.80;41.40
11597;DHT22;5854;48.072;16.286;2022-07-22T05:16:08;26.80;41.70
11597;DHT22;5854;48.072;16.286;2022-07-22T05:18:35;26.90;41.20
11597;DHT22;5854;48.072;16.286;2022-07-22T05:21:04;26.90;41.40
11597;DHT22;5854;48.072;16.286;2022-07-22T05:23:32;26.90;42.10
11597;DHT22;5854;48.072;16.286;2022-07-22T05:25:59;26.80;41.60
11597;DHT22;5854;48.072;16.286;2022-07-22T05:28:27;26.90;40.90
11597;DHT22;5854;48.072;16.286;2022-07-22T05:30:55;26.90;42.40
11597;DHT22;5854;48.072;16.286;2022-07-22T05:33:22;26.80;42.70
11597;DHT22;5854;48.072;16.286;2022-07-22T05:35:49;26.60;41.80
11597;DHT22;5854;48.072;16.286;2022-07-22T05:38:18;26.70;42.40
11597;DHT22;5854;48.072;16.286;2022-07-22T05:40:46;26.80;42.30
11597;DHT22;5854;48.072;16.286;2022-07-22T05:43:13;27.00;42.00
11597;DHT22;5854;48.072;16.286;2022-07-22T05:45:40;27.00;42.00
11597;DHT22;5854;48.072;16.286;2022-07-22T05:48:07;27.00;41.40
11597;DHT22;5854;48.072;16.286;2022-07-22T05:50:35;27.10;41.30
11597;DHT22;5854;48.072;16.286;2022-07-22T05:53:03;27.10;42.20
11597;DHT22;5854;48.072;16.286;2022-07-22T05:55:31;27.30;40.70
11597;DHT22;5854;48.072;16.286;2022-07-22T05:57:59;27.30;40.80
11597;DHT22;5854;48.072;16.286;2022-07-22T06:00:26;27.40;40.40
11597;DHT22;5854;48.072;16.286;2022-07-22T06:02:53;27.40;40.70
11597;DHT22;5854;48.072;16.286;2022-07-22T06:05:20;27.40;41.20
11597;DHT22;5854;48.072;16.286;2022-07-22T06:07:47;27.40;41.10
11597;DHT22;5854;48.072;16.286;2022-07-22T06:10:15;27.40;40.10
11597;DHT22;5854;48.072;16.286;2022-07-22T06:12:48;27.50;41.60
11597;DHT22;5854;48.072;16.286;2022-07-22T06:15:15;27.50;41.20
11597;DHT22;5854;48.072;16.286;2022-07-22T06:17:42;27.60;41.20
11597;DHT22;5854;48.072;16.286;2022-07-22T06:20:09;27.80;40.00
11597;DHT22;5854;48.072;16.286;2022-07-22T06:22:39;28.10;39.70
11597;DHT22;5854;48.072;16.286;2022-07-22T06:25:07;28.40;39.10
11597;DHT22;5854;48.072;16.286;2022-07-22T06:27:34;28.40;38.80
11597;DHT22;5854;48.072;16.286;2022-07-22T06:30:04;28.70;38.70
11597;DHT22;5854;48.072;16.286;2022-07-22T06:32:32;29.00;38.70
11597;DHT22;5854;48.072;16.286;2022-07-22T10:47:53;31.30;33.20
11597;DHT22;5854;48.072;16.286;2022-07-22T10:50:50;31.10;33.80
11597;DHT22;5854;48.072;16.286;2022-07-22T10:53:39;31.20;34.80
11597;DHT22;5854;48.072;16.286;2022-07-22T10:56:16;31.40;33.50
11597;DHT22;5854;48.072;16.286;2022-07-22T10:58:53;31.10;33.30
11597;DHT22;5854;48.072;16.286;2022-07-22T11:01:24;31.10;33.60
11597;DHT22;5854;48.072;16.286;2022-07-22T11:03:55;31.10;33.30
11597;DHT22;5854;48.072;16.286;2022-07-22T11:06:25;31.20;34.00
11597;DHT22;5854;48.072;16.286;2022-07-22T11:08:56;31.20;34.10
11597;DHT22;5854;48.072;16.286;2022-07-22T11:11:41;31.40;34.10
11597;DHT22;5854;48.072;16.286;2022-07-22T11:14:19;31.60;33.00
11597;DHT22;5854;48.072;16.286;2022-07-22T11:16:51;31.50;32.90
11597;DHT22;5854;48.072;16.286;2022-07-22T11:19:24;31.40;34.10
11597;DHT22;5854;48.072;16.286;2022-07-22T11:21:53;31.60;32.80
11597;DHT22;5854;48.072;16.286;2022-07-22T11:24:24;31.70;32.30
11597;DHT22;5854;48.072;16.286;2022-07-22T11:26:54;31.80;32.00
11597;DHT22;5854;48.072;16.286;2022-07-22T11:29:25;31.70;32.90
11597;DHT22;5854;48.072;16.286;2022-07-22T11:31:54;31.80;32.50
11597;DHT22;5854;48.072;16.286;2022-07-22T11:43:44;31.90;32.10
11597;DHT22;5854;48.072;16.286;2022-07-22T11:46:13;32.00;32.70
11597;DHT22;5854;48.072;16.286;2022-07-22T11:48:42;32.10;31.70
11597;DHT22;5854;48.072;16.286;2022-07-22T11:51:11;32.00;31.50
11597;DHT22;5854;48.072;16.286;2022-07-22T11:53:41;32.00;31.70
11597;DHT22;5854;48.072;16.286;2022-07-22T11:56:15;32.00;32.80
11597;DHT22;5854;48.072;16.286;2022-07-22T11:58:49;32.20;31.90
11597;DHT22;5854;48.072;16.286;2022-07-22T12:01:20;32.20;31.20
11597;DHT22;5854;48.072;16.286;2022-07-22T12:03:51;32.20;31.10
11597;DHT22;5854;48.072;16.286;2022-07-22T12:06:21;32.50;31.00
11597;DHT22;5854;48.072;16.286;2022-07-22T12:14:05;33.60;29.10
11597;DHT22;5854;48.072;16.286;2022-07-22T12:16:34;35.20;28.30
11597;DHT22;5854;48.072;16.286;2022-07-22T12:19:04;35.90;26.40
11597;DHT22;5854;48.072;16.286;2022-07-22T12:21:35;36.30;25.60
11597;DHT22;5854;48.072;16.286;2022-07-22T12:24:05;36.70;25.00
11597;DHT22;5854;48.072;16.286;2022-07-22T12:26:46;37.00;25.10
11597;DHT22;5854;48.072;16.286;2022-07-22T12:29:18;36.90;24.20
11597;DHT22;5854;48.072;16.286;2022-07-22T12:31:48;37.30;24.70
11597;DHT22;5854;48.072;16.286;2022-07-22T12:34:16;37.90;24.70
11597;DHT22;5854;48.072;16.286;2022-07-22T12:36:47;38.00;23.50
11597;DHT22;5854;48.072;16.286;2022-07-22T12:39:15;37.50;23.60
11597;DHT22;5854;48.072;16.286;2022-07-22T12:41:48;37.40;24.10
11597;DHT22;5854;48.072;16.286;2022-07-22T12:44:23;37.60;24.40
11597;DHT22;5854;48.072;16.286;2022-07-22T12:46:54;37.70;24.40
11597;DHT22;5854;48.072;16.286;2022-07-22T12:49:23;37.70;24.60
11597;DHT22;5854;48.072;16.286;2022-07-22T12:52:11;37.50;24.40
11597;DHT22;5854;48.072;16.286;2022-07-22T12:54:41;37.90;23.60
11597;DHT22;5854;48.072;16.286;2022-07-22T12:57:10;37.70;23.40
11597;DHT22;5854;48.072;16.286;2022-07-22T12:59:39;37.60;24.00
11597;DHT22;5854;48.072;16.286;2022-07-22T13:02:06;37.90;23.80
11597;DHT22;5854;48.072;16.286;2022-07-22T13:04:34;37.60;24.00
11597;DHT22;5854;48.072;16.286;2022-07-22T13:07:01;37.50;24.40
11597;DHT22;5854;48.072;16.286;2022-07-22T13:09:28;37.10;24.50
11597;DHT22;5854;48.072;16.286;2022-07-22T13:11:55;36.60;25.60
11597;DHT22;5854;48.072;16.286;2022-07-22T13:14:23;37.00;25.90
11597;DHT22;5854;48.072;16.286;2022-07-22T13:16:51;37.10;25.40
11597;DHT22;5854;48.072;16.286;2022-07-22T13:19:18;37.00;25.30
11597;DHT22;5854;48.072;16.286;2022-07-22T13:21:45;36.80;25.60
11597;DHT22;5854;48.072;16.286;2022-07-22T13:24:13;37.20;25.50
11597;DHT22;5854;48.072;16.286;2022-07-22T13:26:40;37.30;25.10
11597;DHT22;5854;48.072;16.286;2022-07-22T13:29:07;37.00;25.60
11597;DHT22;5854;48.072;16.286;2022-07-22T13:31:35;36.60;25.50
11597;DHT22;5854;48.072;16.286;2022-07-22T13:34:03;36.50;26.40
11597;DHT22;5854;48.072;16.286;2022-07-22T13:36:30;36.70;26.10
11597;DHT22;5854;48.072;16.286;2022-07-22T13:38:59;36.40;27.10
11597;DHT22;5854;48.072;16.286;2022-07-22T13:41:27;35.70;26.90
11597;DHT22;5854;48.072;16.286;2022-07-22T13:43:54;35.70;27.70
11597;DHT22;5854;48.072;16.286;2022-07-22T13:46:21;35.30;27.30
11597;DHT22;5854;48.072;16.286;2022-07-22T13:48:48;34.70;28.60
11597;DHT22;5854;48.072;16.286;2022-07-22T13:51:17;34.80;28.30
11597;DHT22;5854;48.072;16.286;2022-07-22T13:53:44;34.50;28.90
11597;DHT22;5854;48.072;16.286;2022-07-22T13:56:11;34.70;29.30
11597;DHT22;5854;48.072;16.286;2022-07-22T13:58:39;35.10;28.70
11597;DHT22;5854;48.072;16.286;2022-07-22T14:01:07;35.30;28.80
11597;DHT22;5854;48.072;16.286;2022-07-22T14:03:35;34.80;29.20
11597;DHT22;5854;48.072;16.286;2022-07-22T14:06:02;34.80;29.00
11597;DHT22;5854;48.072;16.286;2022-07-22T14:08:32;34.80;28.30
11597;DHT22;5854;48.072;16.286;2022-07-22T14:10:59;34.60;28.10
11597;DHT22;5854;48.072;16.286;2022-07-22T14:13:26;34.90;28.90
11597;DHT22;5854;48.072;16.286;2022-07-22T14:15:54;35.10;29.20
11597;DHT22;5854;48.072;16.286;2022-07-22T14:18:21;35.50;28.10
11597;DHT22;5854;48.072;16.286;2022-07-22T14:20:48;35.50;27.80
11597;DHT22;5854;48.072;16.286;2022-07-22T14:23:15;35.50;27.80
11597;DHT22;5854;48.072;16.286;2022-07-22T14:25:47;35.40;29.30
11597;DHT22;5854;48.072;16.286;2022-07-22T14:28:15;34.70;27.80
11597;DHT22;5854;48.072;16.286;2022-07-22T14:30:42;34.80;28.60
11597;DHT22;5854;48.072;16.286;2022-07-22T14:33:09;35.00;28.70
11597;DHT22;5854;48.072;16.286;2022-07-22T14:35:36;35.00;29.50
11597;DHT22;5854;48.072;16.286;2022-07-22T14:38:03;35.30;29.00
11597;DHT22;5854;48.072;16.286;2022-07-22T14:40:30;35.30;27.50
11597;DHT22;5854;48.072;16.286;2022-07-22T14:42:58;34.80;28.00
11597;DHT22;5854;48.072;16.286;2022-07-22T14:45:25;35.00;28.90
11597;DHT22;5854;48.072;16.286;2022-07-22T14:47:52;34.90;27.70
11597;DHT22;5854;48.072;16.286;2022-07-22T14:50:20;35.00;29.30
11597;DHT22;5854;48.072;16.286;2022-07-22T14:52:47;35.40;28.40
11597;DHT22;5854;48.072;16.286;2022-07-22T14:55:14;35.60;27.70
11597;DHT22;5854;48.072;16.286;2022-07-22T14:57:42;35.60;27.70
11597;DHT22;5854;48.072;16.286;2022-07-22T15:00:11;35.70;27.90
11597;DHT22;5854;48.072;16.286;2022-07-22T15:02:38;35.90;27.60
11597;DHT22;5854;48.072;16.286;2022-07-22T15:05:06;35.80;27.10
11597;DHT22;5854;48.072;16.286;2022-07-22T15:07:33;34.90;27.30
11597;DHT22;5854;48.072;16.286;2022-07-22T15:10:00;34.80;28.60
11597;DHT22;5854;48.072;16.286;2022-07-22T15:12:28;35.40;27.90
11597;DHT22;5854;48.072;16.286;2022-07-22T15:14:55;35.00;27.70
11597;DHT22;5854;48.072;16.286;2022-07-22T15:17:23;34.70;29.00
11597;DHT22;5854;48.072;16.286;2022-07-22T15:19:50;34.90;28.50
11597;DHT22;5854;48.072;16.286;2022-07-22T15:22:17;35.10;29.30
11597;DHT22;5854;48.072;16.286;2022-07-22T15:24:45;35.60;27.80
11597;DHT22;5854;48.072;16.286;2022-07-22T15:27:12;35.40;28.30
11597;DHT22;5854;48.072;16.286;2022-07-22T15:29:40;35.60;28.30
11597;DHT22;5854;48.072;16.286;2022-07-22T15:32:07;35.60;28.30
11597;DHT22;5854;48.072;16.286;2022-07-22T15:34:35;35.30;29.00
11597;DHT22;5854;48.072;16.286;2022-07-22T15:37:02;35.90;28.20
11597;DHT22;5854;48.072;16.286;2022-07-22T15:39:30;36.00;28.00
11597;DHT22;5854;48.072;16.286;2022-07-22T15:41:57;36.40;27.90
11597;DHT22;5854;48.072;16.286;2022-07-22T15:44:24;36.10;28.00
11597;DHT22;5854;48.072;16.286;2022-07-22T15:46:51;36.10;27.80
11597;DHT22;5854;48.072;16.286;2022-07-22T15:49:20;35.60;28.00
11597;DHT22;5854;48.072;16.286;2022-07-22T15:51:49;35.70;27.20
11597;DHT22;5854;48.072;16.286;2022-07-22T15:54:16;35.70;27.50
11597;DHT22;5854;48.072;16.286;2022-07-22T15:56:43;35.40;28.90
11597;DHT22;5854;48.072;16.286;2022-07-22T15:59:11;35.40;29.00
11597;DHT22;5854;48.072;16.286;2022-07-22T16:01:55;35.50;28.10
11597;DHT22;5854;48.072;16.286;2022-07-22T16:04:22;35.50;28.30
11597;DHT22;5854;48.072;16.286;2022-07-22T16:06:51;35.70;27.10
11597;DHT22;5854;48.072;16.286;2022-07-22T16:09:18;35.80;28.50
11597;DHT22;5854;48.072;16.286;2022-07-22T16:11:45;36.20;28.40
11597;DHT22;5854;48.072;16.286;2022-07-22T16:14:12;36.30;28.10
11597;DHT22;5854;48.072;16.286;2022-07-22T16:16:40;36.00;27.90
11597;DHT22;5854;48.072;16.286;2022-07-22T16:19:07;36.00;27.80
11597;DHT22;5854;48.072;16.286;2022-07-22T16:21:34;36.00;28.60
11597;DHT22;5854;48.072;16.286;2022-07-22T16:29:08;35.90;27.90
11597;DHT22;5854;48.072;16.286;2022-07-22T16:31:35;35.80;28.40
11597;DHT22;5854;48.072;16.286;2022-07-22T16:34:03;35.70;28.70
11597;DHT22;5854;48.072;16.286;2022-07-22T16:36:30;35.90;27.70
11597;DHT22;5854;48.072;16.286;2022-07-22T16:38:57;36.00;27.70
11597;DHT22;5854;48.072;16.286;2022-07-22T16:41:26;35.90;28.00
11597;DHT22;5854;48.072;16.286;2022-07-22T16:43:53;36.00;28.70
11597;DHT22;5854;48.072;16.286;2022-07-22T16:46:22;35.70;27.20
11597;DHT22;5854;48.072;16.286;2022-07-22T16:48:49;35.40;29.10
11597;DHT22;5854;48.072;16.286;2022-07-22T16:51:16;35.10;29.30
11597;DHT22;5854;48.072;16.286;2022-07-22T16:53:44;35.50;29.00
11597;DHT22;5854;48.072;16.286;2022-07-22T16:56:11;35.40;28.20
11597;DHT22;5854;48.072;16.286;2022-07-22T16:58:38;35.50;29.60
11597;DHT22;5854;48.072;16.286;2022-07-22T17:01:05;35.50;28.30
11597;DHT22;5854;48.072;16.286;2022-07-22T17:03:34;35.50;28.90
11597;DHT22;5854;48.072;16.286;2022-07-22T17:06:01;35.40;28.40
11597;DHT22;5854;48.072;16.286;2022-07-22T17:08:28;35.10;29.70
11597;DHT22;5854;48.072;16.286;2022-07-22T17:10:55;35.20;29.70
11597;DHT22;5854;48.072;16.286;2022-07-22T17:13:22;35.30;28.10
11597;DHT22;5854;48.072;16.286;2022-07-22T17:15:51;35.30;31.40
11597;DHT22;5854;48.072;16.286;2022-07-22T17:18:18;35.30;30.70
11597;DHT22;5854;48.072;16.286;2022-07-22T17:20:47;35.20;30.80
11597;DHT22;5854;48.072;16.286;2022-07-22T17:23:14;35.10;31.50
11597;DHT22;5854;48.072;16.286;2022-07-22T17:25:41;35.00;31.70
11597;DHT22;5854;48.072;16.286;2022-07-22T17:28:08;34.80;29.60
11597;DHT22;5854;48.072;16.286;2022-07-22T17:30:35;34.60;33.10
11597;DHT22;5854;48.072;16.286;2022-07-22T17:33:02;34.70;33.70
11597;DHT22;5854;48.072;16.286;2022-07-22T17:35:30;34.60;33.50
11597;DHT22;5854;48.072;16.286;2022-07-22T17:37:58;34.60;31.70
11597;DHT22;5854;48.072;16.286;2022-07-22T17:40:25;34.70;33.10
11597;DHT22;5854;48.072;16.286;2022-07-22T17:42:52;34.80;32.80
11597;DHT22;5854;48.072;16.286;2022-07-22T17:45:19;34.50;34.00
11597;DHT22;5854;48.072;16.286;2022-07-22T17:47:48;34.50;34.40
11597;DHT22;5854;48.072;16.286;2022-07-22T17:50:16;34.60;33.80
11597;DHT22;5854;48.072;16.286;2022-07-22T17:52:43;34.40;31.10
11597;DHT22;5854;48.072;16.286;2022-07-22T17:55:11;34.40;31.30
11597;DHT22;5854;48.072;16.286;2022-07-22T17:57:38;34.00;33.30
11597;DHT22;5854;48.072;16.286;2022-07-22T18:00:07;33.90;33.90
11597;DHT22;5854;48.072;16.286;2022-07-22T18:02:35;33.50;34.10
11597;DHT22;5854;48.072;16.286;2022-07-22T18:05:02;33.50;34.20
11597;DHT22;5854;48.072;16.286;2022-07-22T18:07:30;33.20;34.80
11597;DHT22;5854;48.072;16.286;2022-07-22T18:09:57;33.50;35.30
11597;DHT22;5854;48.072;16.286;2022-07-22T18:12:26;33.70;34.20
11597;DHT22;5854;48.072;16.286;2022-07-22T18:14:55;33.90;34.30
11597;DHT22;5854;48.072;16.286;2022-07-22T18:17:22;33.90;33.80
11597;DHT22;5854;48.072;16.286;2022-07-22T18:19:49;33.90;33.50
11597;DHT22;5854;48.072;16.286;2022-07-22T18:22:16;34.00;34.20
11597;DHT22;5854;48.072;16.286;2022-07-22T18:24:43;34.10;33.80
11597;DHT22;5854;48.072;16.286;2022-07-22T18:27:10;34.10;34.10
11597;DHT22;5854;48.072;16.286;2022-07-22T18:29:38;33.90;33.70
11597;DHT22;5854;48.072;16.286;2022-07-22T18:32:06;34.00;34.00
11597;DHT22;5854;48.072;16.286;2022-07-22T18:34:33;33.60;34.50
11597;DHT22;5854;48.072;16.286;2022-07-22T18:37:01;33.60;34.80
11597;DHT22;5854;48.072;16.286;2022-07-22T18:39:28;33.50;34.40
11597;DHT22;5854;48.072;16.286;2022-07-22T18:41:55;33.50;34.70
11597;DHT22;5854;48.072;16.286;2022-07-22T18:44:22;33.60;34.60
11597;DHT22;5854;48.072;16.286;2022-07-22T18:46:51;33.60;34.60
11597;DHT22;5854;48.072;16.286;2022-07-22T18:49:19;33.60;34.50
11597;DHT22;5854;48.072;16.286;2022-07-22T18:51:46;33.40;34.90
11597;DHT22;5854;48.072;16.286;2022-07-22T18:54:13;33.40;35.00
11597;DHT22;5854;48.072;16.286;2022-07-22T18:56:40;33.40;34.80
11597;DHT22;5854;48.072;16.286;2022-07-22T18:59:08;33.20;35.70
11597;DHT22;5854;48.072;16.286;2022-07-22T19:01:35;33.10;35.50
11597;DHT22;5854;48.072;16.286;2022-07-22T19:04:04;33.00;35.80
11597;DHT22;5854;48.072;16.286;2022-07-22T19:06:31;33.00;35.90
11597;DHT22;5854;48.072;16.286;2022-07-22T19:08:58;32.80;35.60
11597;DHT22;5854;48.072;16.286;2022-07-22T19:11:25;32.60;35.90
11597;DHT22;5854;48.072;16.286;2022-07-22T19:13:52;32.80;35.80
11597;DHT22;5854;48.072;16.286;2022-07-22T19:16:19;32.80;35.70
11597;DHT22;5854;48.072;16.286;2022-07-22T19:18:46;32.80;35.80
11597;DHT22;5854;48.072;16.286;2022-07-22T19:21:15;32.60;36.20
11597;DHT22;5854;48.072;16.286;2022-07-22T19:23:42;32.50;36.40
11597;DHT22;5854;48.072;16.286;2022-07-22T19:26:10;32.40;36.50
11597;DHT22;5854;48.072;16.286;2022-07-22T19:28:38;32.30;36.50
11597;DHT22;5854;48.072;16.286;2022-07-22T19:31:05;32.50;36.30
11597;DHT22;5854;48.072;16.286;2022-07-22T19:33:32;32.30;36.70
11597;DHT22;5854;48.072;16.286;2022-07-22T19:35:59;32.10;36.80
11597;DHT22;5854;48.072;16.286;2022-07-22T19:38:28;32.10;37.00
11597;DHT22;5854;48.072;16.286;2022-07-22T19:40:55;32.10;36.80
11597;DHT22;5854;48.072;16.286;2022-07-22T19:43:22;32.20;36.70
11597;DHT22;5854;48.072;16.286;2022-07-22T19:45:49;32.20;36.40
11597;DHT22;5854;48.072;16.286;2022-07-22T19:48:16;32.10;36.80
11597;DHT22;5854;48.072;16.286;2022-07-22T19:50:43;32.10;36.80
11597;DHT22;5854;48.072;16.286;2022-07-22T19:53:10;32.00;36.90
11597;DHT22;5854;48.072;16.286;2022-07-22T19:55:39;32.00;36.90
11597;DHT22;5854;48.072;16.286;2022-07-22T19:58:06;31.90;36.70
11597;DHT22;5854;48.072;16.286;2022-07-22T20:00:33;31.70;36.90
11597;DHT22;5854;48.072;16.286;2022-07-22T20:03:00;31.50;37.20
11597;DHT22;5854;48.072;16.286;2022-07-22T20:05:27;31.40;37.40
11597;DHT22;5854;48.072;16.286;2022-07-22T20:07:55;31.40;37.70